createdAt,value
2018-01-08T00:00:29.123Z,98951.44
2018-01-08T00:01:00.746Z,98947.20
2018-01-08T00:01:32.430Z,98947.17
2018-01-08T00:02:04.062Z,98945.84
2018-01-08T00:02:35.686Z,98949.72
2018-01-08T00:03:07.310Z,98950.15
2018-01-08T00:03:38.938Z,98949.27
2018-01-08T00:04:10.837Z,98950.11
2018-01-08T00:04:42.458Z,98948.80
2018-01-08T00:05:14.082Z,98947.05
2018-01-08T00:05:45.714Z,98955.16
2018-01-08T00:06:17.346Z,98946.16
2018-01-08T00:06:49.026Z,98948.69
2018-01-08T00:07:20.649Z,98950.39
2018-01-08T00:07:52.278Z,98950.00
2018-01-08T00:08:23.907Z,98950.39
2018-01-08T00:08:55.530Z,98947.82
2018-01-08T00:09:27.158Z,98946.08
2018-01-08T00:09:58.798Z,98942.27
2018-01-08T00:10:30.426Z,98947.36
2018-01-08T00:11:02.055Z,98942.70
2018-01-08T00:11:33.683Z,98943.55
2018-01-08T00:12:05.354Z,98941.85
2018-01-08T00:12:36.977Z,98946.98
2018-01-08T00:13:08.599Z,98941.84
2018-01-08T00:13:40.223Z,98939.28
2018-01-08T00:14:11.862Z,98939.67
2018-01-08T00:14:43.492Z,98942.66
2018-01-08T00:15:15.126Z,98937.92
2018-01-08T00:15:46.745Z,98936.69
2018-01-08T00:16:18.370Z,98943.08
2018-01-08T00:16:50.047Z,98938.81
2018-01-08T00:17:21.670Z,98942.66
2018-01-08T00:17:53.294Z,98937.53
2018-01-08T00:18:24.921Z,98938.78
2018-01-08T00:18:56.550Z,98942.19
2018-01-08T00:19:28.174Z,98940.06
2018-01-08T00:19:59.802Z,98940.91
2018-01-08T00:20:31.429Z,98937.54
2018-01-08T00:21:03.084Z,98937.11
2018-01-08T00:21:34.710Z,98942.23
2018-01-08T00:22:06.397Z,98936.22
2018-01-08T00:22:38.022Z,98939.67
2018-01-08T00:23:09.650Z,98940.95
2018-01-08T00:23:41.274Z,98937.96
2018-01-08T00:24:12.897Z,98940.14
2018-01-08T00:24:44.530Z,98932.03
2018-01-08T00:25:16.153Z,98939.28
2018-01-08T00:25:47.777Z,98935.44
2018-01-08T00:26:19.398Z,98937.15
2018-01-08T00:26:51.026Z,98932.47
2018-01-08T00:27:22.702Z,98929.91
2018-01-08T00:27:54.331Z,98930.33
2018-01-08T00:28:25.953Z,98934.16
2018-01-08T00:28:57.578Z,98931.64
2018-01-08T00:29:29.203Z,98937.16
2018-01-08T00:30:00.830Z,98932.03
2018-01-08T00:30:32.454Z,98934.17
2018-01-08T00:31:04.074Z,98935.88
2018-01-08T00:31:35.697Z,98933.73
2018-01-08T00:32:07.348Z,98931.99
2018-01-08T00:32:38.974Z,98929.00
2018-01-08T00:33:10.603Z,98940.14
2018-01-08T00:33:42.235Z,98928.61
2018-01-08T00:34:13.874Z,98933.31
2018-01-08T00:34:45.506Z,98934.21
2018-01-08T00:35:17.135Z,98933.81
2018-01-08T00:35:48.762Z,98930.41
2018-01-08T00:36:20.390Z,98933.36
2018-01-08T00:36:52.014Z,98927.45
2018-01-08T00:37:23.638Z,98934.25
2018-01-08T00:37:55.318Z,98930.48
2018-01-08T00:38:26.941Z,98936.42
2018-01-08T00:38:58.562Z,98926.68
2018-01-08T00:39:30.186Z,98936.50
2018-01-08T00:40:01.810Z,98927.96
2018-01-08T00:40:33.438Z,98930.52
2018-01-08T00:41:05.066Z,98929.28
2018-01-08T00:41:36.697Z,98923.34
2018-01-08T00:42:08.326Z,98929.70
2018-01-08T00:42:39.954Z,98928.00
2018-01-08T00:43:11.630Z,98925.91
2018-01-08T00:43:43.250Z,98924.16
2018-01-08T00:44:14.879Z,98928.42
2018-01-08T00:44:46.510Z,98922.84
2018-01-08T00:45:18.134Z,98925.39
2018-01-08T00:45:49.763Z,98925.83
2018-01-08T00:46:21.390Z,98926.69
2018-01-08T00:46:53.014Z,98926.30
2018-01-08T00:47:24.642Z,98928.89
2018-01-08T00:47:56.266Z,98934.02
2018-01-08T00:48:27.938Z,98931.45
2018-01-08T00:48:59.562Z,98933.59
2018-01-08T00:49:31.190Z,98936.22
2018-01-08T00:50:02.814Z,98936.64
2018-01-08T00:50:34.439Z,98937.07
2018-01-08T00:51:06.067Z,98935.40
2018-01-08T00:51:37.698Z,98941.37
2018-01-08T00:52:09.326Z,98940.06
2018-01-08T00:52:40.946Z,98938.35
2018-01-08T00:53:12.566Z,98941.34
2018-01-08T00:53:44.419Z,98938.34
2018-01-08T00:54:16.046Z,98943.05
2018-01-08T00:54:47.670Z,98943.47
2018-01-08T00:55:19.300Z,98944.36
2018-01-08T00:55:50.922Z,98941.41
2018-01-08T00:56:22.550Z,98934.63
2018-01-08T00:56:54.173Z,98937.64
2018-01-08T00:57:25.802Z,98940.20
2018-01-08T00:57:57.431Z,98941.94
2018-01-08T00:58:29.058Z,98946.21
2018-01-08T00:59:00.743Z,98947.09
2018-01-08T00:59:32.370Z,98941.09
2018-01-08T01:00:03.998Z,98939.78
2018-01-08T01:00:35.622Z,98944.89
2018-01-08T01:01:07.250Z,98944.86
2018-01-08T01:01:38.878Z,98947.84
2018-01-08T01:02:10.511Z,98946.99
2018-01-08T01:02:42.139Z,98947.45
2018-01-08T01:03:13.770Z,98951.30
2018-01-08T01:03:45.394Z,98956.80
2018-01-08T01:04:17.174Z,98956.41
2018-01-08T01:04:48.802Z,98959.86
2018-01-08T01:05:20.434Z,98956.87
2018-01-08T01:05:52.062Z,98953.00
2018-01-08T01:06:23.686Z,98963.67
2018-01-08T01:06:55.310Z,98957.77
2018-01-08T01:07:26.934Z,98956.91
2018-01-08T01:07:58.563Z,98956.91
2018-01-08T01:08:30.190Z,98953.92
2018-01-08T01:09:01.819Z,98959.89
2018-01-08T01:09:33.446Z,98961.64
2018-01-08T01:10:05.070Z,98953.99
2018-01-08T01:10:36.698Z,98958.65
2018-01-08T01:11:08.330Z,98960.00
2018-01-08T01:11:39.958Z,98962.55
2018-01-08T01:12:11.582Z,98959.60
2018-01-08T01:12:43.210Z,98954.94
2018-01-08T01:13:14.834Z,98952.81
2018-01-08T01:13:46.462Z,98961.34
2018-01-08T01:14:18.091Z,98954.09
2018-01-08T01:14:49.771Z,98957.11
2018-01-08T01:15:21.394Z,98954.55
2018-01-08T01:15:53.029Z,98954.98
2018-01-08T01:16:24.654Z,98952.45
2018-01-08T01:16:56.279Z,98956.72
2018-01-08T01:17:27.901Z,98953.73
2018-01-08T01:17:59.530Z,98957.17
2018-01-08T01:18:31.158Z,98951.66
2018-01-08T01:19:02.786Z,98959.30
2018-01-08T01:19:34.410Z,98957.17
2018-01-08T01:20:06.086Z,98955.50
2018-01-08T01:20:37.709Z,98951.66
2018-01-08T01:21:09.333Z,98955.92
2018-01-08T01:21:40.963Z,98950.38
2018-01-08T01:22:12.587Z,98951.66
2018-01-08T01:22:44.214Z,98949.52
2018-01-08T01:23:15.842Z,98952.94
2018-01-08T01:23:47.466Z,98952.94
2018-01-08T01:24:19.096Z,98950.81
2018-01-08T01:24:50.728Z,98945.72
2018-01-08T01:25:22.402Z,98950.38
2018-01-08T01:25:54.030Z,98949.10
2018-01-08T01:26:25.654Z,98948.28
2018-01-08T01:26:57.282Z,98944.87
2018-01-08T01:27:28.958Z,98944.44
2018-01-08T01:28:00.587Z,98950.41
2018-01-08T01:28:32.210Z,98941.88
2018-01-08T01:29:03.838Z,98955.10
2018-01-08T01:29:35.462Z,98953.36
2018-01-08T01:30:07.086Z,98952.91
2018-01-08T01:30:38.762Z,98951.23
2018-01-08T01:31:10.390Z,98953.36
2018-01-08T01:31:42.014Z,98954.64
2018-01-08T01:32:13.647Z,98948.25
2018-01-08T01:32:45.269Z,98955.92
2018-01-08T01:33:16.893Z,98950.38
2018-01-08T01:33:48.514Z,98952.94
2018-01-08T01:34:20.143Z,98945.62
2018-01-08T01:34:51.766Z,98949.47
2018-01-08T01:35:23.394Z,98949.44
2018-01-08T01:35:55.067Z,98950.71
2018-01-08T01:36:26.698Z,98948.12
2018-01-08T01:36:58.326Z,98951.08
2018-01-08T01:37:29.950Z,98940.87
2018-01-08T01:38:01.578Z,98948.48
2018-01-08T01:38:33.216Z,98947.20
2018-01-08T01:39:04.846Z,98948.91
2018-01-08T01:39:36.474Z,98955.23
2018-01-08T01:40:08.098Z,98944.54
2018-01-08T01:40:39.723Z,98945.81
2018-01-08T01:41:11.398Z,98952.64
2018-01-08T01:41:43.026Z,98945.45
2018-01-08T01:42:14.650Z,98946.73
2018-01-08T01:42:46.273Z,98944.21
2018-01-08T01:43:17.907Z,98946.34
2018-01-08T01:43:49.533Z,98947.17
2018-01-08T01:44:21.166Z,98950.15
2018-01-08T01:44:52.789Z,98945.46
2018-01-08T01:45:24.418Z,98947.56
2018-01-08T01:45:56.050Z,98949.73
2018-01-08T01:46:27.726Z,98948.45
2018-01-08T01:46:59.354Z,98946.73
2018-01-08T01:47:30.982Z,98947.98
2018-01-08T01:48:02.610Z,98945.00
2018-01-08T01:48:34.234Z,98953.50
2018-01-08T01:49:05.857Z,98953.50
2018-01-08T01:49:37.482Z,98950.94
2018-01-08T01:50:09.111Z,98953.07
2018-01-08T01:50:40.738Z,98944.54
2018-01-08T01:51:12.372Z,98945.39
2018-01-08T01:51:44.006Z,98940.66
2018-01-08T01:52:15.635Z,98943.22
2018-01-08T01:52:47.270Z,98937.67
2018-01-08T01:53:18.958Z,98938.53
2018-01-08T01:53:50.568Z,98938.95
2018-01-08T01:54:22.203Z,98941.09
2018-01-08T01:54:53.826Z,98934.27
2018-01-08T01:55:25.455Z,98940.20
2018-01-08T01:55:57.078Z,98939.78
2018-01-08T01:56:28.697Z,98936.33
2018-01-08T01:57:00.374Z,98932.48
2018-01-08T01:57:32.003Z,98935.87
2018-01-08T01:58:03.634Z,98929.89
2018-01-08T01:58:35.266Z,98938.00
2018-01-08T01:59:06.895Z,98941.84
2018-01-08T01:59:38.523Z,98939.74
2018-01-08T02:00:10.150Z,98940.63
2018-01-08T02:00:41.774Z,98941.09
2018-01-08T02:01:13.403Z,98943.66
2018-01-08T02:01:45.026Z,98946.17
2018-01-08T02:02:16.698Z,98944.05
2018-01-08T02:02:48.330Z,98942.33
2018-01-08T02:03:19.958Z,98946.99
2018-01-08T02:03:51.586Z,98941.45
2018-01-08T02:04:23.222Z,98938.89
2018-01-08T02:04:54.850Z,98941.87
2018-01-08T02:05:26.478Z,98944.83
2018-01-08T02:05:58.106Z,98943.12
2018-01-08T02:06:29.730Z,98945.68
2018-01-08T02:07:01.359Z,98944.79
2018-01-08T02:07:33.039Z,98941.84
2018-01-08T02:08:04.670Z,98941.34
2018-01-08T02:08:36.298Z,98940.06
2018-01-08T02:09:07.926Z,98942.62
2018-01-08T02:09:39.550Z,98943.47
2018-01-08T02:10:11.178Z,98946.07
2018-01-08T02:10:42.801Z,98944.40
2018-01-08T02:11:14.430Z,98947.77
2018-01-08T02:11:46.055Z,98938.84
2018-01-08T02:12:17.681Z,98942.69
2018-01-08T02:12:49.394Z,98938.42
2018-01-08T02:13:21.024Z,98942.72
2018-01-08T02:13:52.650Z,98941.87
2018-01-08T02:14:24.277Z,98937.18
2018-01-08T02:14:55.906Z,98941.91
2018-01-08T02:15:27.534Z,98943.66
2018-01-08T02:15:59.158Z,98941.09
2018-01-08T02:16:30.782Z,98938.99
2018-01-08T02:17:02.411Z,98937.75
2018-01-08T02:17:34.038Z,98938.20
2018-01-08T02:18:05.714Z,98942.47
2018-01-08T02:18:37.333Z,98941.62
2018-01-08T02:19:08.962Z,98937.39
2018-01-08T02:19:40.586Z,98938.20
2018-01-08T02:20:12.210Z,98931.41
2018-01-08T02:20:43.833Z,98938.67
2018-01-08T02:21:15.463Z,98937.00
2018-01-08T02:21:47.094Z,98936.53
2018-01-08T02:22:18.717Z,98941.69
2018-01-08T02:22:50.342Z,98935.32
2018-01-08T02:23:22.018Z,98940.84
2018-01-08T02:23:53.646Z,98937.03
2018-01-08T02:24:25.275Z,98935.78
2018-01-08T02:24:56.902Z,98934.90
2018-01-08T02:25:28.527Z,98931.91
2018-01-08T02:26:00.162Z,98934.50
2018-01-08T02:26:31.790Z,98934.93
2018-01-08T02:27:03.414Z,98939.23
2018-01-08T02:27:35.034Z,98943.06
2018-01-08T02:28:06.662Z,98934.11
2018-01-08T02:28:38.294Z,98945.66
2018-01-08T02:29:09.922Z,98938.41
2018-01-08T02:29:41.551Z,98944.38
2018-01-08T02:30:13.182Z,98938.87
2018-01-08T02:30:44.806Z,98940.54
2018-01-08T02:31:16.435Z,98940.08
2018-01-08T02:31:48.066Z,98943.49
2018-01-08T02:32:19.698Z,98942.21
2018-01-08T02:32:51.321Z,98941.79
2018-01-08T02:33:22.956Z,98942.64
2018-01-08T02:33:54.635Z,98947.79
2018-01-08T02:34:26.262Z,98940.97
2018-01-08T02:34:57.885Z,98944.80
2018-01-08T02:35:29.519Z,98941.42
2018-01-08T02:36:01.154Z,98944.84
2018-01-08T02:36:32.787Z,98942.70
2018-01-08T02:37:04.418Z,98941.42
2018-01-08T02:37:36.047Z,98945.27
2018-01-08T02:38:07.671Z,98946.55
2018-01-08T02:38:39.300Z,98944.84
2018-01-08T02:39:10.980Z,98947.82
2018-01-08T02:39:42.614Z,98943.56
2018-01-08T02:40:14.241Z,98948.25
2018-01-08T02:40:45.866Z,98946.11
2018-01-08T02:41:17.496Z,98947.85
2018-01-08T02:41:49.130Z,98946.55
2018-01-08T02:42:20.754Z,98943.56
2018-01-08T02:42:52.378Z,98942.31
2018-01-08T02:43:24.006Z,98952.52
2018-01-08T02:43:55.635Z,98942.28
2018-01-08T02:44:27.314Z,98943.59
2018-01-08T02:44:58.934Z,98946.14
2018-01-08T02:45:30.553Z,98945.27
2018-01-08T02:46:02.183Z,98948.28
2018-01-08T02:46:33.810Z,98952.09
2018-01-08T02:47:05.433Z,98945.27
2018-01-08T02:47:37.062Z,98951.66
2018-01-08T02:48:08.690Z,98950.38
2018-01-08T02:48:40.319Z,98945.30
2018-01-08T02:49:11.946Z,98949.56
2018-01-08T02:49:43.634Z,98948.73
2018-01-08T02:50:15.267Z,98949.16
2018-01-08T02:50:46.894Z,98954.25
2018-01-08T02:51:18.518Z,98952.12
2018-01-08T02:51:50.150Z,98950.34
2018-01-08T02:52:21.773Z,98952.02
2018-01-08T02:52:53.403Z,98948.15
2018-01-08T02:53:25.035Z,98950.25
2018-01-08T02:53:56.726Z,98955.41
2018-01-08T02:54:28.354Z,98955.41
2018-01-08T02:55:00.047Z,98954.13
2018-01-08T02:55:31.674Z,98955.83
2018-01-08T02:56:03.306Z,98955.41
2018-01-08T02:56:34.943Z,98948.15
2018-01-08T02:57:06.574Z,98954.09
2018-01-08T02:57:38.203Z,98954.09
2018-01-08T02:58:09.830Z,98956.25
2018-01-08T02:58:41.463Z,98956.65
2018-01-08T02:59:13.090Z,98953.23
2018-01-08T02:59:44.718Z,98951.92
2018-01-08T03:00:16.390Z,98954.91
2018-01-08T03:00:48.018Z,98948.94
2018-01-08T03:01:19.642Z,98955.38
2018-01-08T03:01:51.266Z,98952.35
2018-01-08T03:02:22.891Z,98948.91
2018-01-08T03:02:54.514Z,98952.75
2018-01-08T03:03:26.141Z,98956.58
2018-01-08T03:03:57.766Z,98952.35
2018-01-08T03:04:29.398Z,98954.48
2018-01-08T03:05:01.025Z,98951.89
2018-01-08T03:05:32.667Z,98949.33
2018-01-08T03:06:04.302Z,98948.45
2018-01-08T03:06:35.921Z,98951.00
2018-01-08T03:07:07.550Z,98953.17
2018-01-08T03:07:39.175Z,98942.55
2018-01-08T03:08:10.803Z,98951.89
2018-01-08T03:08:42.425Z,98947.59
2018-01-08T03:09:14.053Z,98952.71
2018-01-08T03:09:45.673Z,98952.71
2018-01-08T03:10:17.294Z,98952.28
2018-01-08T03:10:48.967Z,98945.46
2018-01-08T03:11:20.598Z,98943.00
2018-01-08T03:11:52.218Z,98948.48
2018-01-08T03:12:23.843Z,98952.75
2018-01-08T03:12:55.475Z,98947.23
2018-01-08T03:13:27.102Z,98954.02
2018-01-08T03:13:58.728Z,98950.19
2018-01-08T03:14:30.355Z,98951.03
2018-01-08T03:15:01.983Z,98955.73
2018-01-08T03:15:33.606Z,98953.59
2018-01-08T03:16:05.291Z,98954.45
2018-01-08T03:16:36.914Z,98956.16
2018-01-08T03:17:08.542Z,98952.74
2018-01-08T03:17:40.175Z,98954.84
2018-01-08T03:18:11.802Z,98954.81
2018-01-08T03:18:43.425Z,98953.11
2018-01-08T03:19:15.050Z,98953.95
2018-01-08T03:19:46.677Z,98957.41
2018-01-08T03:20:18.307Z,98957.44
2018-01-08T03:20:49.934Z,98955.73
2018-01-08T03:21:21.615Z,98959.17
2018-01-08T03:21:53.237Z,98962.55
2018-01-08T03:22:24.867Z,98960.03
2018-01-08T03:22:56.490Z,98964.30
2018-01-08T03:23:28.124Z,98960.45
2018-01-08T03:23:59.755Z,98961.31
2018-01-08T03:24:31.386Z,98959.17
2018-01-08T03:25:03.023Z,98956.19
2018-01-08T03:25:34.654Z,98957.50
2018-01-08T03:26:06.286Z,98957.92
2018-01-08T03:26:37.962Z,98960.48
2018-01-08T03:27:09.586Z,98966.00
2018-01-08T03:27:41.214Z,98960.91
2018-01-08T03:28:12.842Z,98971.55
2018-01-08T03:28:44.476Z,98966.03
2018-01-08T03:29:16.106Z,98961.77
2018-01-08T03:29:47.730Z,98962.19
2018-01-08T03:30:19.354Z,98957.92
2018-01-08T03:30:50.988Z,98963.90
2018-01-08T03:31:22.623Z,98966.03
2018-01-08T03:31:54.302Z,98965.18
2018-01-08T03:32:25.931Z,98960.91
2018-01-08T03:32:57.554Z,98965.64
2018-01-08T03:33:29.214Z,98967.77
2018-01-08T03:34:00.842Z,98968.20
2018-01-08T03:34:32.527Z,98967.34
2018-01-08T03:35:04.138Z,98967.34
2018-01-08T03:35:35.766Z,98969.87
2018-01-08T03:36:07.399Z,98965.61
2018-01-08T03:36:39.022Z,98973.25
2018-01-08T03:37:10.693Z,98965.15
2018-01-08T03:37:42.321Z,98965.15
2018-01-08T03:38:13.945Z,98968.16
2018-01-08T03:38:45.570Z,98963.47
2018-01-08T03:39:17.198Z,98966.03
2018-01-08T03:39:48.822Z,98968.16
2018-01-08T03:40:20.450Z,98960.91
2018-01-08T03:40:52.083Z,98967.73
2018-01-08T03:41:23.706Z,98965.61
2018-01-08T03:41:55.334Z,98962.66
2018-01-08T03:42:26.963Z,98962.22
2018-01-08T03:42:58.586Z,98960.09
2018-01-08T03:43:30.210Z,98961.41
2018-01-08T03:44:01.849Z,98958.84
2018-01-08T03:44:33.473Z,98959.27
2018-01-08T03:45:05.094Z,98963.53
2018-01-08T03:45:36.725Z,98961.01
2018-01-08T03:46:08.375Z,98962.29
2018-01-08T03:46:40.007Z,98961.44
2018-01-08T03:47:11.630Z,98957.99
2018-01-08T03:47:43.307Z,98964.39
2018-01-08T03:48:14.931Z,98965.67
2018-01-08T03:48:46.554Z,98962.72
2018-01-08T03:49:18.177Z,98963.11
2018-01-08T03:49:49.806Z,98965.70
2018-01-08T03:50:21.430Z,98962.32
2018-01-08T03:50:53.063Z,98965.30
2018-01-08T03:51:24.694Z,98956.38
2018-01-08T03:51:56.322Z,98949.56
2018-01-08T03:52:27.950Z,98953.00
2018-01-08T03:52:59.630Z,98948.73
2018-01-08T03:53:31.262Z,98956.81
2018-01-08T03:54:02.891Z,98956.38
2018-01-08T03:54:34.514Z,98962.81
2018-01-08T03:55:06.142Z,98951.75
2018-01-08T03:55:37.766Z,98954.67
2018-01-08T03:56:09.390Z,98959.77
2018-01-08T03:56:41.019Z,98952.09
2018-01-08T03:57:12.651Z,98953.37
2018-01-08T03:57:44.278Z,98952.52
2018-01-08T03:58:15.957Z,98948.70
2018-01-08T03:58:47.586Z,98951.30
2018-01-08T03:59:19.209Z,98946.18
2018-01-08T03:59:50.838Z,98947.45
2018-01-08T04:00:22.466Z,98947.45
2018-01-08T04:00:54.099Z,98947.91
2018-01-08T04:01:25.722Z,98947.09
2018-01-08T04:01:57.349Z,98948.34
2018-01-08T04:02:28.982Z,98942.37
2018-01-08T04:03:00.620Z,98948.80
2018-01-08T04:03:32.299Z,98939.39
2018-01-08T04:04:03.958Z,98946.20
2018-01-08T04:04:35.587Z,98943.20
2018-01-08T04:05:07.214Z,98944.44
2018-01-08T04:05:38.842Z,98949.56
2018-01-08T04:06:10.470Z,98943.16
2018-01-08T04:06:42.100Z,98944.47
2018-01-08T04:07:13.730Z,98947.06
2018-01-08T04:07:45.359Z,98944.08
2018-01-08T04:08:16.982Z,98944.05
2018-01-08T04:08:48.653Z,98941.52
2018-01-08T04:09:20.282Z,98937.68
2018-01-08T04:09:51.909Z,98940.67
2018-01-08T04:10:23.539Z,98941.52
2018-01-08T04:10:55.170Z,98935.98
2018-01-08T04:11:26.802Z,98936.77
2018-01-08T04:11:58.434Z,98935.48
2018-01-08T04:12:30.067Z,98935.09
2018-01-08T04:13:01.695Z,98932.92
2018-01-08T04:13:33.326Z,98938.90
2018-01-08T04:14:05.002Z,98941.88
2018-01-08T04:14:36.629Z,98942.28
2018-01-08T04:15:08.308Z,98941.85
2018-01-08T04:15:39.912Z,98948.25
2018-01-08T04:16:11.542Z,98940.14
2018-01-08T04:16:43.175Z,98940.14
2018-01-08T04:17:14.798Z,98947.82
2018-01-08T04:17:46.418Z,98943.98
2018-01-08T04:18:18.042Z,98942.28
2018-01-08T04:18:49.667Z,98946.11
2018-01-08T04:19:21.294Z,98946.97
2018-01-08T04:19:52.922Z,98941.85
2018-01-08T04:20:24.550Z,98937.59
2018-01-08T04:20:56.178Z,98942.28
2018-01-08T04:21:27.806Z,98943.09
2018-01-08T04:21:59.434Z,98944.34
2018-01-08T04:22:31.061Z,98949.47
2018-01-08T04:23:02.691Z,98948.15
2018-01-08T04:23:34.320Z,98943.88
2018-01-08T04:24:05.946Z,98949.86
2018-01-08T04:24:37.621Z,98956.28
2018-01-08T04:25:09.250Z,98952.02
2018-01-08T04:25:40.878Z,98954.13
2018-01-08T04:26:12.501Z,98951.14
2018-01-08T04:26:44.130Z,98951.53
2018-01-08T04:27:15.754Z,98948.52
2018-01-08T04:27:47.382Z,98944.70
2018-01-08T04:28:19.011Z,98951.53
2018-01-08T04:28:50.634Z,98947.69
2018-01-08T04:29:22.258Z,98947.69
2018-01-08T04:29:53.935Z,98950.28
2018-01-08T04:30:25.562Z,98946.88
2018-01-08T04:30:57.192Z,98953.73
2018-01-08T04:31:28.819Z,98954.13
2018-01-08T04:32:00.446Z,98946.88
2018-01-08T04:32:32.078Z,98951.56
2018-01-08T04:33:03.702Z,98953.70
2018-01-08T04:33:35.340Z,98952.81
2018-01-08T04:34:07.251Z,98953.66
2018-01-08T04:34:38.874Z,98952.38
2018-01-08T04:35:10.558Z,98955.80
2018-01-08T04:35:42.182Z,98954.09
2018-01-08T04:36:13.811Z,98963.05
2018-01-08T04:36:45.439Z,98962.16
2018-01-08T04:37:17.062Z,98962.59
2018-01-08T04:37:48.696Z,98959.17
2018-01-08T04:38:20.326Z,98960.45
2018-01-08T04:38:51.954Z,98961.77
2018-01-08T04:39:23.578Z,98966.00
2018-01-08T04:39:55.207Z,98961.77
2018-01-08T04:40:26.882Z,98965.61
2018-01-08T04:40:58.506Z,98964.36
2018-01-08T04:41:30.138Z,98967.34
2018-01-08T04:42:01.763Z,98972.00
2018-01-08T04:42:33.386Z,98969.88
2018-01-08T04:43:05.006Z,98969.45
2018-01-08T04:43:36.629Z,98974.56
2018-01-08T04:44:08.253Z,98968.62
2018-01-08T04:44:39.878Z,98976.30
2018-01-08T04:45:11.510Z,98975.84
2018-01-08T04:45:43.186Z,98972.89
2018-01-08T04:46:14.807Z,98978.89
2018-01-08T04:46:46.430Z,98973.77
2018-01-08T04:47:18.054Z,98975.02
2018-01-08T04:47:49.674Z,98975.48
2018-01-08T04:48:21.298Z,98983.61
2018-01-08T04:48:52.931Z,98980.17
2018-01-08T04:49:24.558Z,98980.14
2018-01-08T04:49:56.187Z,98982.70
2018-01-08T04:50:27.819Z,98981.02
2018-01-08T04:50:59.498Z,98983.58
2018-01-08T04:51:31.122Z,98982.73
2018-01-08T04:52:02.763Z,98989.98
2018-01-08T04:52:34.386Z,98991.72
2018-01-08T04:53:06.007Z,98999.81
2018-01-08T04:53:37.634Z,98990.44
2018-01-08T04:54:09.262Z,98991.71
2018-01-08T04:54:40.893Z,98996.83
2018-01-08T04:55:12.513Z,98990.44
2018-01-08T04:55:44.143Z,98992.17
2018-01-08T04:56:15.780Z,98997.72
2018-01-08T04:56:47.411Z,98990.47
2018-01-08T04:57:19.047Z,98994.70
2018-01-08T04:57:50.675Z,98989.16
2018-01-08T04:58:22.303Z,98999.42
2018-01-08T04:58:53.926Z,99002.37
2018-01-08T04:59:25.554Z,98997.72
2018-01-08T04:59:57.178Z,99003.29
2018-01-08T05:00:28.804Z,98997.72
2018-01-08T05:01:00.435Z,98999.45
2018-01-08T05:01:32.139Z,98995.61
2018-01-08T05:02:03.771Z,98998.20
2018-01-08T05:02:35.394Z,99005.48
2018-01-08T05:03:07.019Z,99002.49
2018-01-08T05:03:38.641Z,98999.05
2018-01-08T05:04:10.270Z,98996.50
2018-01-08T05:04:41.898Z,98996.95
2018-01-08T05:05:13.527Z,99002.89
2018-01-08T05:05:45.158Z,99000.36
2018-01-08T05:06:16.825Z,98997.83
2018-01-08T05:06:48.497Z,98999.95
2018-01-08T05:07:20.126Z,98997.40
2018-01-08T05:07:51.759Z,98995.70
2018-01-08T05:08:23.386Z,98997.83
2018-01-08T05:08:55.010Z,98989.75
2018-01-08T05:09:26.638Z,98993.16
2018-01-08T05:09:58.266Z,99002.14
2018-01-08T05:10:29.890Z,98997.48
2018-01-08T05:11:01.518Z,98997.03
2018-01-08T05:11:33.141Z,98991.86
2018-01-08T05:12:04.814Z,98989.72
2018-01-08T05:12:36.443Z,98999.55
2018-01-08T05:13:08.066Z,98997.45
2018-01-08T05:13:39.694Z,98997.94
2018-01-08T05:14:11.323Z,99002.63
2018-01-08T05:14:42.954Z,98999.21
2018-01-08T05:15:14.578Z,98997.93
2018-01-08T05:15:46.198Z,98999.64
2018-01-08T05:16:17.819Z,99002.63
2018-01-08T05:16:49.442Z,99000.52
2018-01-08T05:17:21.113Z,99003.13
2018-01-08T05:17:52.751Z,99009.95
2018-01-08T05:18:24.406Z,99004.86
2018-01-08T05:18:56.034Z,99004.45
2018-01-08T05:19:27.662Z,98999.38
2018-01-08T05:19:59.290Z,99001.50
2018-01-08T05:20:30.918Z,99003.20
2018-01-08T05:21:02.547Z,98998.97
2018-01-08T05:21:34.170Z,98998.54
2018-01-08T05:22:05.798Z,99002.80
2018-01-08T05:22:37.476Z,98998.11
2018-01-08T05:23:09.098Z,99002.41
2018-01-08T05:23:40.726Z,99004.95
2018-01-08T05:24:12.355Z,99004.53
2018-01-08T05:24:43.982Z,98996.44
2018-01-08T05:25:15.617Z,98999.81
2018-01-08T05:25:47.242Z,99002.80
2018-01-08T05:26:18.868Z,99005.36
2018-01-08T05:26:50.498Z,99005.33
2018-01-08T05:27:22.124Z,99001.08
2018-01-08T05:27:53.803Z,99000.63
2018-01-08T05:28:25.431Z,99004.86
2018-01-08T05:28:57.058Z,99005.71
2018-01-08T05:29:28.691Z,99007.84
2018-01-08T05:30:00.349Z,99001.42
2018-01-08T05:30:31.978Z,99000.52
2018-01-08T05:31:03.606Z,99006.01
2018-01-08T05:31:35.225Z,98999.61
2018-01-08T05:32:06.846Z,98995.00
2018-01-08T05:32:38.466Z,99006.01
2018-01-08T05:33:10.090Z,98997.03
2018-01-08T05:33:41.714Z,99008.05
2018-01-08T05:34:13.334Z,99009.77
2018-01-08T05:34:44.957Z,99006.78
2018-01-08T05:35:16.586Z,98980.91
2018-01-08T05:35:48.218Z,99007.64
2018-01-08T05:36:19.846Z,99002.92
2018-01-08T05:36:51.469Z,99005.48
2018-01-08T05:37:23.089Z,99009.71
2018-01-08T05:37:54.717Z,99015.71
2018-01-08T05:38:26.394Z,99011.02
2018-01-08T05:38:58.018Z,99003.31
2018-01-08T05:39:29.646Z,99022.08
2018-01-08T05:40:01.272Z,99016.93
2018-01-08T05:40:32.902Z,99016.48
2018-01-08T05:41:04.534Z,99021.20
2018-01-08T05:41:36.157Z,99013.49
2018-01-08T05:42:07.782Z,99015.16
2018-01-08T05:42:39.411Z,99010.87
2018-01-08T05:43:11.038Z,99014.72
2018-01-08T05:43:42.709Z,99017.21
2018-01-08T05:44:14.334Z,99017.64
2018-01-08T05:44:45.987Z,99018.47
2018-01-08T05:45:17.614Z,99012.03
2018-01-08T05:45:49.246Z,99016.23
2018-01-08T05:46:20.874Z,99019.63
2018-01-08T05:46:52.551Z,99018.30
2018-01-08T05:47:24.166Z,99014.01
2018-01-08T05:47:55.792Z,99017.81
2018-01-08T05:48:27.422Z,99013.95
2018-01-08T05:48:59.094Z,99013.91
2018-01-08T05:49:30.717Z,99017.75
2018-01-08T05:50:02.347Z,99019.85
2018-01-08T05:50:33.978Z,99018.14
2018-01-08T05:51:05.601Z,99017.29
2018-01-08T05:51:37.225Z,99020.28
2018-01-08T05:52:08.854Z,99019.00
2018-01-08T05:52:40.478Z,99019.00
2018-01-08T05:53:12.097Z,99020.64
2018-01-08T05:53:43.717Z,99021.89
2018-01-08T05:54:15.389Z,99014.20
2018-01-08T05:54:47.018Z,99018.90
2018-01-08T05:55:18.642Z,99023.59
2018-01-08T05:55:50.278Z,99023.63
2018-01-08T05:56:21.901Z,99030.84
2018-01-08T05:56:53.529Z,99028.35
2018-01-08T05:57:25.158Z,99031.34
2018-01-08T05:57:56.786Z,99022.77
2018-01-08T05:58:28.409Z,99019.81
2018-01-08T05:59:00.043Z,99021.92
2018-01-08T05:59:31.726Z,99024.09
2018-01-08T06:00:03.359Z,99021.92
2018-01-08T06:00:34.989Z,99025.77
2018-01-08T06:01:06.614Z,99019.78
2018-01-08T06:01:38.243Z,99021.95
2018-01-08T06:02:09.870Z,99018.97
2018-01-08T06:02:41.498Z,99019.36
2018-01-08T06:03:13.126Z,99026.16
2018-01-08T06:03:44.754Z,99024.05
2018-01-08T06:04:16.378Z,99028.32
2018-01-08T06:04:48.050Z,99024.94
2018-01-08T06:05:19.679Z,99019.85
2018-01-08T06:05:51.306Z,99024.09
2018-01-08T06:06:22.929Z,99026.65
2018-01-08T06:06:54.559Z,99027.53
2018-01-08T06:07:26.182Z,99024.61
2018-01-08T06:07:57.811Z,99029.27
2018-01-08T06:08:29.438Z,99029.30
2018-01-08T06:09:01.070Z,99032.78
2018-01-08T06:09:32.699Z,99029.83
2018-01-08T06:10:04.321Z,99025.13
2018-01-08T06:10:35.945Z,99031.11
2018-01-08T06:11:07.570Z,99024.28
2018-01-08T06:11:39.193Z,99025.98